createdAt,value
2023-10-10T00:02:19.652Z,3.70
2023-10-10T00:04:51.125Z,3.92
2023-10-10T00:07:19.129Z,3.50
2023-10-10T00:09:46.893Z,3.42
2023-10-10T00:12:26.972Z,3.58
2023-10-10T00:14:59.585Z,4.50
2023-10-10T00:17:35.740Z,4.37
2023-10-10T00:20:29.532Z,3.58
2023-10-10T00:23:00.342Z,3.85
2023-10-10T00:25:31.922Z,3.50
2023-10-10T00:28:10.111Z,3.33
2023-10-10T00:30:44.327Z,3.85
2023-10-10T00:33:12.311Z,3.10
2023-10-10T00:35:39.867Z,3.63
2023-10-10T00:38:08.955Z,3.15
2023-10-10T00:40:40.991Z,3.10
2023-10-10T00:43:17.693Z,3.20
2023-10-10T00:45:53.321Z,3.17
2023-10-10T00:48:23.423Z,3.13
2023-10-10T00:51:07.075Z,2.92
2023-10-10T00:53:35.676Z,3.90
2023-10-10T00:56:06.855Z,3.22
2023-10-10T00:58:41.960Z,3.22
2023-10-10T01:01:16.140Z,3.33
2023-10-10T01:03:47.542Z,3.25
2023-10-10T01:06:21.238Z,3.40
2023-10-10T01:11:31.914Z,3.20
2023-10-10T01:13:58.584Z,3.83
2023-10-10T01:16:28.685Z,3.35
2023-10-10T01:18:59.253Z,3.58
2023-10-10T01:21:34.636Z,3.30
2023-10-10T01:24:07.785Z,3.38
2023-10-10T01:26:38.548Z,4.88
2023-10-10T01:29:19.949Z,3.17
2023-10-10T01:31:47.068Z,5.88
2023-10-10T01:34:31.793Z,3.40
2023-10-10T01:37:05.022Z,3.25
2023-10-10T01:39:50.101Z,3.67
2023-10-10T01:42:19.261Z,4.15
2023-10-10T01:44:46.083Z,4.13
2023-10-10T01:47:26.721Z,2.97
2023-10-10T01:49:59.580Z,3.58
2023-10-10T01:52:28.679Z,3.83
2023-10-10T01:54:55.513Z,3.25
2023-10-10T01:57:23.113Z,3.10
2023-10-10T01:59:52.891Z,3.65
2023-10-10T02:02:27.538Z,3.80
2023-10-10T02:05:00.974Z,3.35
2023-10-10T02:07:32.755Z,3.03
2023-10-10T02:10:15.305Z,3.50
2023-10-10T02:12:46.257Z,3.10
2023-10-10T02:15:15.822Z,3.40
2023-10-10T02:17:52.413Z,3.83
2023-10-10T02:20:35.673Z,2.97
2023-10-10T02:23:10.596Z,3.35
2023-10-10T02:25:37.489Z,3.58
2023-10-10T02:28:10.125Z,4.13
2023-10-10T02:30:37.972Z,3.33
2023-10-10T02:33:20.147Z,3.92
2023-10-10T02:35:58.040Z,3.22
2023-10-10T02:38:33.637Z,3.78
2023-10-10T02:41:26.425Z,3.85
2023-10-10T02:44:05.623Z,3.80
2023-10-10T02:46:39.728Z,3.33
2023-10-10T02:49:14.365Z,3.45
2023-10-10T02:51:44.239Z,3.35
2023-10-10T02:54:35.081Z,3.30
2023-10-10T02:57:23.154Z,3.22
2023-10-10T02:59:53.541Z,3.72
2023-10-10T03:02:22.413Z,4.47
2023-10-10T03:04:57.017Z,3.75
2023-10-10T03:07:32.409Z,3.08
2023-10-10T03:10:24.245Z,4.32
2023-10-10T03:13:06.363Z,3.80
2023-10-10T03:15:34.458Z,3.75
2023-10-10T03:18:09.948Z,3.85
2023-10-10T03:20:39.782Z,4.15
2023-10-10T03:23:06.753Z,5.28
2023-10-10T03:25:46.848Z,3.72
2023-10-10T03:28:40.480Z,3.50
2023-10-10T03:31:24.351Z,4.00
2023-10-10T03:34:19.601Z,4.20
2023-10-10T03:36:47.381Z,3.85
2023-10-10T03:39:17.573Z,3.97
2023-10-10T03:42:03.136Z,4.13
2023-10-10T03:44:48.429Z,3.85
2023-10-10T03:47:33.567Z,3.55
2023-10-10T03:53:05.605Z,3.90
2023-10-10T03:55:57.468Z,3.45
2023-10-10T03:58:42.336Z,4.20
2023-10-10T04:01:27.300Z,3.55
2023-10-10T04:04:12.302Z,3.35
2023-10-10T04:06:57.389Z,4.10
2023-10-10T04:09:42.649Z,3.78
2023-10-10T04:12:27.523Z,4.00
2023-10-10T04:15:12.821Z,3.72
2023-10-10T04:17:57.995Z,3.45
2023-10-10T04:20:43.238Z,3.78
2023-10-10T04:23:28.239Z,4.10
2023-10-10T04:26:13.230Z,3.20
2023-10-10T04:28:58.293Z,3.38
2023-10-10T04:31:43.276Z,4.30
2023-10-10T04:34:28.462Z,3.35
2023-10-10T04:37:13.365Z,4.15
2023-10-10T04:39:58.631Z,3.58
2023-10-10T04:42:43.503Z,3.80
2023-10-10T04:45:28.865Z,4.50
2023-10-10T04:48:14.436Z,4.13
2023-10-10T04:50:59.565Z,3.92
2023-10-10T04:53:44.612Z,3.95
2023-10-10T04:56:29.546Z,3.55
2023-10-10T04:59:14.796Z,3.50
2023-10-10T05:01:59.727Z,3.90
2023-10-10T05:04:44.888Z,4.30
2023-10-10T05:07:30.234Z,4.97
2023-10-10T05:10:15.404Z,4.28
2023-10-10T05:13:00.749Z,3.35
2023-10-10T05:15:45.933Z,4.03
2023-10-10T05:18:31.204Z,3.95
2023-10-10T05:21:16.205Z,3.67
2023-10-10T05:23:49.084Z,4.53
2023-10-10T05:26:17.005Z,3.40
2023-10-10T05:28:46.455Z,4.10
2023-10-10T05:31:13.102Z,3.42
2023-10-10T05:33:39.776Z,3.30
2023-10-10T05:36:09.304Z,3.28
2023-10-10T05:38:37.626Z,3.63
2023-10-10T05:41:07.566Z,3.45
2023-10-10T05:43:35.685Z,3.10
2023-10-10T05:46:06.980Z,3.15
2023-10-10T05:48:34.223Z,3.58
2023-10-10T05:51:02.039Z,3.10
2023-10-10T05:53:28.746Z,3.55
2023-10-10T05:55:59.977Z,3.53
2023-10-10T05:58:27.333Z,3.63
2023-10-10T06:00:55.014Z,3.35
2023-10-10T06:03:22.742Z,3.53
2023-10-10T06:05:51.215Z,3.05
2023-10-10T06:08:18.561Z,3.35
2023-10-10T06:10:46.843Z,3.28
2023-10-10T06:13:13.502Z,2.90
2023-10-10T06:15:40.716Z,3.10
2023-10-10T06:18:13.605Z,3.55
2023-10-10T06:23:19.616Z,3.92
2023-10-10T06:25:47.073Z,3.10
2023-10-10T06:28:27.506Z,3.22
2023-10-10T06:30:54.979Z,3.15
2023-10-10T06:33:29.369Z,2.72
2023-10-10T06:36:24.695Z,3.15
2023-10-10T06:39:04.958Z,3.28
2023-10-10T06:41:40.181Z,3.08
2023-10-10T06:44:15.195Z,2.80
2023-10-10T06:46:43.843Z,3.83
2023-10-10T06:49:13.630Z,3.83
2023-10-10T06:51:41.315Z,3.08
2023-10-10T06:54:10.016Z,3.38
2023-10-10T06:56:46.531Z,3.00
2023-10-10T06:59:17.813Z,2.78
2023-10-10T07:01:46.717Z,3.33
2023-10-10T07:04:14.742Z,4.05
2023-10-10T07:06:46.057Z,3.47
2023-10-10T07:09:15.894Z,3.13
2023-10-10T07:11:43.187Z,3.15
2023-10-10T07:14:12.137Z,4.13
2023-10-10T07:16:44.390Z,3.25
2023-10-10T07:19:21.197Z,4.03
2023-10-10T07:21:49.178Z,3.92
2023-10-10T07:24:17.085Z,3.22
2023-10-10T07:26:45.434Z,2.75
2023-10-10T07:29:51.714Z,4.18
2023-10-10T07:32:29.460Z,3.47
2023-10-10T07:34:56.934Z,3.70
2023-10-10T07:37:24.189Z,3.58
2023-10-10T07:39:56.959Z,3.80
2023-10-10T07:42:32.138Z,3.47
2023-10-10T07:44:59.686Z,2.80
2023-10-10T07:47:28.064Z,3.75
2023-10-10T07:49:56.110Z,3.25
2023-10-10T07:52:23.697Z,3.25
2023-10-10T07:55:04.833Z,3.33
2023-10-10T07:57:51.646Z,3.10
2023-10-10T08:00:19.078Z,2.88
2023-10-10T08:02:51.407Z,3.60
2023-10-10T08:05:21.250Z,3.85
2023-10-10T08:07:48.775Z,3.75
2023-10-10T08:10:30.878Z,3.63
2023-10-10T08:12:59.119Z,3.35
2023-10-10T08:15:28.839Z,2.80
2023-10-10T08:17:56.805Z,3.28
2023-10-10T08:20:43.467Z,3.60
2023-10-10T08:23:10.276Z,2.97
2023-10-10T08:25:39.842Z,3.42
2023-10-10T08:28:06.418Z,3.55
2023-10-10T08:30:34.692Z,3.67
2023-10-10T08:33:02.723Z,3.10
2023-10-10T08:35:31.292Z,3.80
2023-10-10T08:37:58.646Z,3.28
2023-10-10T08:40:37.453Z,3.05
2023-10-10T08:43:04.994Z,3.55
2023-10-10T08:45:41.203Z,3.03
2023-10-10T08:48:14.457Z,3.30
2023-10-10T08:50:42.912Z,4.30
2023-10-10T08:53:14.089Z,3.35
2023-10-10T08:55:41.994Z,3.08
2023-10-10T08:58:09.594Z,4.28
2023-10-10T09:00:36.898Z,3.05
2023-10-10T09:03:04.056Z,3.20
2023-10-10T09:05:31.012Z,3.17
2023-10-10T09:08:08.245Z,3.00
2023-10-10T09:10:40.833Z,3.03
2023-10-10T09:13:08.729Z,3.35
2023-10-10T09:15:36.052Z,3.35
2023-10-10T09:18:16.318Z,3.53
2023-10-10T09:20:48.912Z,3.60
2023-10-10T09:23:26.346Z,3.63
2023-10-10T09:26:21.224Z,3.65
2023-10-10T09:29:00.151Z,3.83
2023-10-10T09:31:33.616Z,3.10
2023-10-10T09:36:30.781Z,3.38
2023-10-10T09:39:11.100Z,3.00
2023-10-10T09:41:58.336Z,3.33
2023-10-10T09:44:53.416Z,3.33
2023-10-10T09:47:41.616Z,3.58
2023-10-10T09:50:23.809Z,3.17
2023-10-10T09:52:55.355Z,3.42
2023-10-10T09:55:26.590Z,3.25
2023-10-10T09:58:06.889Z,3.20
2023-10-10T10:00:40.077Z,3.85
2023-10-10T10:03:26.155Z,2.83
2023-10-10T10:06:25.174Z,3.45
2023-10-10T10:09:21.686Z,2.80
2023-10-10T10:12:20.590Z,3.00
2023-10-10T10:14:55.396Z,2.90
2023-10-10T10:17:45.754Z,2.75
2023-10-10T10:20:22.376Z,3.33
2023-10-10T10:23:00.839Z,3.28
2023-10-10T10:25:37.293Z,3.30
2023-10-10T10:28:16.128Z,3.15
2023-10-10T10:30:51.762Z,3.00
2023-10-10T10:33:23.649Z,3.03
2023-10-10T10:36:00.576Z,3.67
2023-10-10T10:38:27.468Z,3.30
2023-10-10T10:41:08.543Z,2.78
2023-10-10T10:43:44.751Z,3.85
2023-10-10T10:46:28.051Z,3.63
2023-10-10T10:49:06.741Z,2.88
2023-10-10T10:51:48.263Z,2.95
2023-10-10T10:54:39.589Z,3.13
2023-10-10T10:57:07.449Z,3.25
2023-10-10T10:59:37.302Z,3.20
2023-10-10T11:02:15.341Z,4.15
2023-10-10T11:04:51.228Z,3.08
2023-10-10T11:07:29.429Z,2.92
2023-10-10T11:10:07.516Z,3.45
2023-10-10T11:12:38.215Z,3.35
2023-10-10T11:15:09.182Z,3.08
2023-10-10T11:17:40.475Z,4.28
2023-10-10T11:20:30.455Z,3.90
2023-10-10T11:23:11.950Z,3.85
2023-10-10T11:26:00.115Z,3.20
2023-10-10T11:28:38.693Z,3.72
2023-10-10T11:31:08.709Z,3.45
2023-10-10T11:33:49.681Z,3.47
2023-10-10T11:36:39.677Z,4.22
2023-10-10T11:39:25.921Z,3.35
2023-10-10T11:41:55.645Z,3.80
2023-10-10T11:44:23.245Z,3.38
2023-10-10T11:46:57.433Z,3.22
2023-10-10T11:49:24.109Z,2.85
2023-10-10T11:51:54.290Z,3.35
2023-10-10T11:54:26.672Z,3.33
2023-10-10T11:56:53.652Z,2.90
2023-10-10T11:59:20.388Z,3.53
2023-10-10T12:01:55.590Z,3.40
2023-10-10T12:04:31.951Z,3.72
2023-10-10T12:07:02.669Z,3.50
2023-10-10T12:09:31.581Z,3.65
2023-10-10T12:12:04.205Z,3.00
2023-10-10T12:14:32.380Z,4.22
2023-10-10T12:17:06.894Z,3.30
2023-10-10T12:19:38.117Z,3.10
2023-10-10T12:22:09.513Z,3.88
2023-10-10T12:24:36.855Z,2.97
2023-10-10T12:27:08.352Z,3.55
2023-10-10T12:29:40.984Z,2.67
2023-10-10T12:32:16.939Z,3.45
2023-10-10T12:34:44.561Z,3.03
2023-10-10T12:37:11.273Z,4.05
2023-10-10T12:39:39.198Z,3.53
2023-10-10T12:42:05.963Z,2.70
2023-10-10T12:44:32.808Z,2.88
2023-10-10T12:47:00.373Z,3.28
2023-10-10T12:49:30.324Z,3.45
2023-10-10T12:51:58.341Z,3.17
2023-10-10T12:54:36.023Z,2.90
2023-10-10T12:57:07.317Z,3.40
2023-10-10T12:59:35.152Z,3.22
2023-10-10T13:02:04.979Z,3.35
2023-10-10T13:04:37.670Z,3.25
2023-10-10T13:07:04.877Z,3.47
2023-10-10T13:09:33.594Z,3.97
2023-10-10T13:12:04.622Z,3.05
2023-10-10T13:14:34.313Z,2.92
2023-10-10T13:17:21.857Z,3.38
2023-10-10T13:19:50.069Z,4.38
2023-10-10T13:22:22.159Z,3.50
2023-10-10T13:24:50.172Z,3.67
2023-10-10T13:27:18.877Z,3.65
2023-10-10T13:29:45.755Z,3.78
2023-10-10T13:32:12.573Z,3.58
2023-10-10T13:34:39.185Z,3.78
2023-10-10T13:37:08.763Z,2.75
2023-10-10T13:39:48.991Z,3.78
2023-10-10T13:42:15.983Z,4.00
2023-10-10T13:44:43.709Z,3.58
2023-10-10T13:47:11.509Z,3.85
2023-10-10T13:49:46.056Z,3.53
2023-10-10T13:52:14.485Z,3.40
2023-10-10T13:54:41.430Z,4.43
2023-10-10T13:57:08.906Z,3.63
2023-10-10T13:59:35.749Z,3.38
2023-10-10T14:02:05.642Z,3.78
2023-10-10T14:04:46.984Z,3.33
2023-10-10T14:07:15.745Z,3.53
2023-10-10T14:09:56.005Z,3.70
2023-10-10T14:12:33.644Z,3.38
2023-10-10T14:15:00.785Z,3.10
2023-10-10T14:17:27.635Z,4.07
2023-10-10T14:19:54.425Z,3.85
2023-10-10T14:22:25.139Z,4.28
2023-10-10T14:24:53.212Z,3.70
2023-10-10T14:27:21.398Z,3.95
2023-10-10T14:29:49.156Z,3.13
2023-10-10T14:32:26.948Z,4.20
2023-10-10T14:35:01.968Z,3.13
2023-10-10T14:37:42.039Z,4.00
2023-10-10T14:40:16.888Z,3.30
2023-10-10T14:42:43.758Z,3.42
2023-10-10T14:45:13.744Z,3.85
2023-10-10T14:47:44.801Z,3.63
2023-10-10T14:50:11.987Z,4.13
2023-10-10T14:52:41.480Z,3.42
2023-10-10T14:55:25.271Z,4.00
2023-10-10T14:57:56.272Z,3.45
2023-10-10T15:00:29.373Z,3.30
2023-10-10T15:02:57.303Z,2.88
2023-10-10T15:05:26.642Z,3.75
2023-10-10T15:07:56.581Z,3.42
2023-10-10T15:10:29.344Z,3.22
2023-10-10T15:12:56.183Z,3.35
2023-10-10T15:15:23.960Z,2.90
2023-10-10T15:17:51.533Z,3.15
2023-10-10T15:20:18.329Z,3.58
2023-10-10T15:22:44.884Z,3.33
2023-10-10T15:25:12.303Z,3.70
2023-10-10T15:27:42.732Z,3.53
2023-10-10T15:30:10.213Z,2.90
2023-10-10T15:32:49.237Z,3.80
2023-10-10T15:35:20.561Z,3.53
2023-10-10T15:37:49.011Z,3.55
2023-10-10T15:40:24.809Z,3.00
2023-10-10T15:42:54.478Z,3.67
2023-10-10T15:45:24.117Z,3.72
2023-10-10T15:47:54.168Z,2.83
2023-10-10T15:50:22.967Z,3.47
2023-10-10T15:52:50.391Z,4.18
2023-10-10T15:55:25.236Z,3.08
2023-10-10T15:57:53.679Z,3.15
2023-10-10T16:00:22.697Z,3.47
2023-10-10T16:02:53.767Z,3.33
2023-10-10T16:05:21.161Z,2.90
2023-10-10T16:07:59.092Z,3.78
2023-10-10T16:10:33.627Z,3.70
2023-10-10T16:13:01.027Z,3.38
2023-10-10T16:15:30.997Z,3.92
2023-10-10T16:17:58.740Z,3.65
2023-10-10T16:20:25.625Z,3.75
2023-10-10T16:22:53.751Z,3.38
2023-10-10T16:25:24.237Z,3.97
2023-10-10T16:27:51.252Z,3.28
2023-10-10T16:30:18.146Z,3.35
2023-10-10T16:32:45.864Z,3.60
2023-10-10T16:35:12.975Z,2.67
2023-10-10T16:37:41.694Z,3.67
2023-10-10T16:40:10.481Z,3.42
2023-10-10T16:42:37.215Z,3.85
2023-10-10T16:45:04.912Z,4.13
2023-10-10T16:47:31.769Z,3.35
2023-10-10T16:49:59.878Z,3.50
2023-10-10T16:52:27.662Z,3.70
2023-10-10T16:54:54.895Z,3.50
2023-10-10T16:57:25.210Z,3.35
2023-10-10T16:59:53.509Z,3.95
2023-10-10T17:02:20.294Z,3.78
2023-10-10T17:04:47.150Z,3.90
2023-10-10T17:07:13.850Z,4.30
2023-10-10T17:09:41.335Z,3.42
2023-10-10T17:12:08.265Z,3.53
2023-10-10T17:14:38.705Z,3.72
2023-10-10T17:17:05.686Z,3.83
2023-10-10T17:19:36.901Z,3.88
2023-10-10T17:22:03.849Z,4.10
2023-10-10T17:24:32.613Z,4.38
2023-10-10T17:26:59.367Z,4.30
2023-10-10T17:29:27.770Z,3.92
2023-10-10T17:31:54.587Z,4.72
2023-10-10T17:34:23.193Z,4.45
2023-10-10T17:36:58.688Z,4.10
2023-10-10T17:39:25.957Z,4.78
2023-10-10T17:41:52.774Z,4.32
2023-10-10T17:44:20.218Z,5.03
2023-10-10T17:46:48.182Z,5.18
2023-10-10T17:49:15.362Z,5.05
2023-10-10T17:51:45.577Z,5.90
2023-10-10T17:54:12.870Z,8.15
2023-10-10T17:56:39.721Z,7.47
2023-10-10T17:59:07.473Z,9.18
2023-10-10T18:01:34.361Z,8.48
2023-10-10T18:04:04.350Z,9.00
2023-10-10T18:06:31.250Z,9.98
2023-10-10T18:09:09.744Z,9.10
2023-10-10T18:11:37.799Z,8.85
2023-10-10T18:14:05.904Z,8.05
2023-10-10T18:16:35.430Z,8.57
2023-10-10T18:19:02.513Z,7.32
2023-10-10T18:21:31.162Z,7.30
2023-10-10T18:23:57.966Z,5.93
2023-10-10T18:26:25.326Z,6.53
2023-10-10T18:28:53.548Z,6.55
2023-10-10T18:31:30.662Z,6.75
2023-10-10T18:33:57.926Z,6.15
2023-10-10T18:36:25.192Z,6.47
2023-10-10T18:38:58.113Z,6.95
2023-10-10T18:41:25.411Z,5.00
2023-10-10T18:43:53.826Z,5.47
2023-10-10T18:46:26.062Z,5.32
2023-10-10T18:48:53.040Z,5.18
2023-10-10T18:51:20.177Z,5.05
2023-10-10T18:53:48.504Z,5.95
2023-10-10T18:56:15.954Z,5.72
2023-10-10T18:58:42.640Z,5.47
2023-10-10T19:01:18.936Z,5.18
2023-10-10T19:03:48.919Z,6.18
2023-10-10T19:06:18.987Z,5.82
2023-10-10T19:08:55.724Z,5.70
2023-10-10T19:11:24.694Z,5.75
2023-10-10T19:13:51.620Z,4.97
2023-10-10T19:16:18.973Z,5.75
2023-10-10T19:18:46.555Z,6.03
2023-10-10T19:21:18.176Z,5.40
2023-10-10T19:23:50.622Z,5.68
2023-10-10T19:26:18.045Z,5.90
2023-10-10T19:28:45.290Z,6.47
2023-10-10T19:31:14.869Z,5.55
2023-10-10T19:33:41.645Z,5.82
2023-10-10T19:36:09.325Z,5.40
2023-10-10T19:38:36.109Z,5.35
2023-10-10T19:41:09.497Z,6.00
2023-10-10T19:43:40.061Z,5.20
2023-10-10T19:46:13.550Z,4.78
2023-10-10T19:51:14.607Z,5.07
2023-10-10T19:53:41.270Z,4.90
2023-10-10T19:56:14.619Z,5.40
2023-10-10T19:58:47.049Z,5.53
2023-10-10T20:01:14.201Z,5.28
2023-10-10T20:03:44.068Z,6.68
2023-10-10T20:06:21.364Z,5.28
2023-10-10T20:08:54.633Z,5.25
2023-10-10T20:11:22.676Z,5.50
2023-10-10T20:13:49.359Z,5.00
2023-10-10T20:16:17.883Z,5.10
2023-10-10T20:18:45.575Z,5.72
2023-10-10T20:21:13.913Z,5.13
2023-10-10T20:23:41.007Z,4.32
2023-10-10T20:26:19.947Z,5.18
2023-10-10T20:28:48.959Z,4.80
2023-10-10T20:31:18.389Z,4.55
2023-10-10T20:33:48.155Z,4.97
2023-10-10T20:36:15.820Z,5.45
2023-10-10T20:38:45.624Z,4.32
2023-10-10T20:41:14.088Z,4.82
2023-10-10T20:43:41.861Z,5.07
2023-10-10T20:46:09.138Z,5.50
2023-10-10T20:48:36.426Z,4.80
2023-10-10T20:51:07.312Z,5.15
2023-10-10T20:53:34.083Z,5.32
2023-10-10T20:56:03.134Z,4.95
2023-10-10T20:58:30.242Z,4.97
2023-10-10T21:00:56.994Z,5.22
2023-10-10T21:03:23.932Z,5.05
2023-10-10T21:05:50.976Z,5.40
2023-10-10T21:08:18.674Z,4.50
2023-10-10T21:10:45.688Z,5.20
2023-10-10T21:13:14.304Z,5.75
2023-10-10T21:15:42.110Z,5.18
2023-10-10T21:18:09.516Z,5.15
2023-10-10T21:20:47.949Z,4.35
2023-10-10T21:23:24.658Z,4.60
2023-10-10T21:25:51.314Z,4.63
2023-10-10T21:28:17.878Z,5.05
2023-10-10T21:30:44.542Z,5.05
2023-10-10T21:33:11.257Z,4.45
2023-10-10T21:35:41.952Z,5.10
2023-10-10T21:38:09.112Z,5.72
2023-10-10T21:40:35.740Z,5.15
2023-10-10T21:43:02.348Z,6.10
2023-10-10T21:45:33.772Z,5.53
2023-10-10T21:48:04.847Z,5.30
2023-10-10T21:50:32.786Z,5.47
2023-10-10T21:53:01.569Z,5.82
2023-10-10T21:55:29.326Z,4.88
2023-10-10T21:57:56.842Z,4.80
2023-10-10T22:00:48.303Z,5.18
2023-10-10T22:03:15.245Z,4.75
2023-10-10T22:05:44.182Z,5.68
2023-10-10T22:08:11.770Z,5.07
2023-10-10T22:10:42.910Z,6.32
2023-10-10T22:13:12.465Z,5.65
2023-10-10T22:15:39.076Z,4.47
2023-10-10T22:18:06.492Z,4.55
2023-10-10T22:20:36.764Z,4.80
2023-10-10T22:23:06.954Z,4.47
2023-10-10T22:25:36.148Z,5.32
2023-10-10T22:28:04.810Z,5.97
2023-10-10T22:30:34.296Z,4.82
2023-10-10T22:33:01.476Z,4.85
2023-10-10T22:35:29.941Z,4.55
2023-10-10T22:37:59.938Z,5.28
2023-10-10T22:40:27.560Z,5.13
2023-10-10T22:42:57.495Z,5.05
2023-10-10T22:45:24.592Z,5.25
2023-10-10T22:47:55.778Z,5.40
2023-10-10T22:50:22.737Z,4.75
2023-10-10T22:52:53.933Z,4.50
2023-10-10T22:55:28.444Z,4.72
2023-10-10T22:58:01.929Z,4.82
2023-10-10T23:00:37.609Z,5.28
2023-10-10T23:03:07.048Z,5.20
2023-10-10T23:05:34.609Z,5.22
2023-10-10T23:08:02.749Z,5.03
2023-10-10T23:10:34.347Z,4.85
2023-10-10T23:13:03.056Z,4.63
2023-10-10T23:15:30.050Z,5.05
2023-10-10T23:17:59.412Z,5.65
2023-10-10T23:20:27.576Z,5.00
2023-10-10T23:22:55.685Z,4.68
2023-10-10T23:25:22.387Z,4.90
2023-10-10T23:27:49.798Z,5.00
2023-10-10T23:30:20.289Z,5.00
2023-10-10T23:32:47.882Z,5.15
2023-10-10T23:35:15.255Z,5.78
2023-10-10T23:37:43.310Z,5.25
2023-10-10T23:40:17.368Z,4.70
2023-10-10T23:42:45.389Z,5.13
2023-10-10T23:45:16.339Z,4.65
2023-10-10T23:47:43.394Z,5.05
2023-10-10T23:50:13.612Z,5.00
2023-10-10T23:52:46.200Z,4.90
2023-10-10T23:55:17.903Z,4.68
2023-10-10T23:57:48.551Z,5.18
